Time;durP1;ratioP1;P1;durP2;ratioP2;P2;SDS_P1;SDS_P2;PMS_P1;PMS_P2;Temp;Humidity;BMP_temperature;BMP_pressure;BME280_temperature;BME280_humidity;BME280_pressure;Samples;Min_cycle;Max_cycle;Signal;HPM_P1;HPM_P2
2024/03/16 00:01:58;;;;;;;34.50;4.80;;;;;;;-146.27;87.52;43717.78;5086913;28;20509;-73
2024/03/16 00:04:24;;;;;;;36.15;4.80;;;;;;;-146.27;86.29;43616.34;5083470;28;20484;-74
2024/03/16 00:06:49;;;;;;;41.00;6.35;;;;;;;-146.27;88.22;43757.59;5092084;28;20032;-73
2024/03/16 00:09:14;;;;;;;38.15;5.18;;;;;;;-146.27;88.98;43721.78;5091241;28;20028;-74
2024/03/16 00:11:40;;;;;;;28.52;4.18;;;;;;;-146.27;89.71;43741.66;5087977;28;20052;-73
2024/03/16 00:14:05;;;;;;;25.40;4.00;;;;;;;-146.27;88.35;43622.31;5084593;28;20032;-72
2024/03/16 00:16:32;;;;;;;34.17;4.80;;;;;;;-146.27;88.83;43705.84;5085188;28;20035;-73
2024/03/16 00:18:57;;;;;;;38.25;5.78;;;;;;;-146.27;89.45;43729.72;5091790;28;20110;-73
2024/03/16 00:21:23;;;;;;;45.13;5.30;;;;;;;-146.27;88.59;43646.19;5095516;27;20028;-74
2024/03/16 00:23:48;;;;;;;42.63;6.18;;;;;;;-146.27;88.50;43713.81;5091489;28;20092;-72
2024/03/16 00:26:14;;;;;;;24.15;4.43;;;;;;;-146.27;88.17;43735.69;5092413;28;20055;-73
2024/03/16 00:28:39;;;;;;;26.00;4.85;;;;;;;-146.27;87.21;43725.75;5091118;28;20036;-73
2024/03/16 00:31:05;;;;;;;29.05;4.50;;;;;;;-146.27;86.05;43753.59;5090009;28;20082;-73
2024/03/16 00:33:30;;;;;;;27.98;4.22;;;;;;;-146.27;85.64;43827.22;5073027;28;20032;-73
2024/03/16 00:35:56;;;;;;;34.88;5.15;;;;;;;-146.27;85.48;43761.56;5076557;28;20051;-73
2024/03/16 00:38:21;;;;;;;26.10;3.97;;;;;;;-146.27;84.88;43755.59;5089523;28;20024;-73
2024/03/16 00:40:47;;;;;;;19.48;3.75;;;;;;;-146.27;84.91;43809.31;5091458;28;20422;-73
2024/03/16 00:43:17;;;;;;;20.10;3.15;;;;;;;-146.27;84.66;43906.78;5089869;28;20118;-73
2024/03/16 00:45:43;;;;;;;14.00;2.90;;;;;;;-146.27;84.01;43878.94;5080326;28;20380;-72
2024/03/16 00:48:08;;;;;;;12.48;2.00;;;;;;;-146.27;83.71;43912.75;5088877;28;20032;-73
2024/03/16 00:50:33;;;;;;;16.33;2.22;;;;;;;-146.27;83.17;43912.75;5090595;28;20643;-72
2024/03/16 00:52:59;;;;;;;11.25;2.42;;;;;;;-146.27;83.01;43972.44;5086733;28;20020;-72
2024/03/16 00:55:24;;;;;;;9.02;1.75;;;;;;;-146.27;83.50;44083.84;5071343;28;20120;-73
2024/03/16 00:57:51;;;;;;;8.88;2.10;;;;;;;-146.27;83.53;44111.72;5085013;28;20051;-71
2024/03/16 01:00:18;;;;;;;13.63;2.13;;;;;;;-146.27;82.88;44107.72;5089253;28;20070;-75
2024/03/16 01:02:43;;;;;;;8.57;1.95;;;;;;;-146.27;81.96;44181.34;5078661;28;20662;-73
2024/03/16 01:05:09;;;;;;;8.68;1.52;;;;;;;-146.27;81.32;44173.38;5084121;28;20024;-73
2024/03/16 01:07:34;;;;;;;13.05;2.17;;;;;;;-146.27;82.49;44272.88;5082008;28;20036;-73
2024/03/16 01:10:00;;;;;;;14.18;2.65;;;;;;;-146.27;84.53;44278.84;5089059;28;20027;-73
2024/03/16 01:12:25;;;;;;;9.23;2.75;;;;;;;-146.27;85.85;44254.97;5091289;28;20024;-73
2024/03/16 01:14:50;;;;;;;12.80;1.95;;;;;;;-146.27;86.29;44227.09;5090241;28;20039;-74
2024/03/16 01:17:16;;;;;;;3.72;1.38;;;;;;;-146.27;86.65;44199.25;5087858;28;20024;-73
2024/03/16 01:19:43;;;;;;;5.93;1.80;;;;;;;-146.27;86.98;44171.41;5086938;28;20055;-73
2024/03/16 01:22:09;;;;;;;10.00;2.15;;;;;;;-146.27;87.01;44179.34;5082412;28;20032;-73
2024/03/16 01:24:35;;;;;;;9.02;1.67;;;;;;;-146.27;87.64;44213.19;5082096;28;20044;-73
2024/03/16 01:27:00;;;;;;;8.05;1.70;;;;;;;-146.27;88.09;44163.44;5087305;28;20111;-72
2024/03/16 01:29:25;;;;;;;7.45;2.33;;;;;;;-146.27;88.33;44207.22;5091308;28;20455;-73
2024/03/16 01:31:51;;;;;;;7.82;2.13;;;;;;;-146.27;88.13;44151.50;5084730;28;20028;-73
2024/03/16 01:34:16;;;;;;;7.60;2.95;;;;;;;-146.27;88.01;44137.56;5091280;28;20092;-73
2024/03/16 01:36:42;;;;;;;7.85;2.22;;;;;;;-146.27;88.81;44207.22;5080646;28;20039;-73
2024/03/16 01:39:11;;;;;;;5.50;2.35;;;;;;;-146.27;89.59;44195.28;5090678;28;20028;-73
2024/03/16 01:41:38;;;;;;;7.75;1.73;;;;;;;-146.27;89.04;44173.38;5087528;28;20048;-73
2024/03/16 01:44:12;;;;;;;8.68;2.22;;;;;;;-146.27;89.26;44159.47;5070842;28;20530;-73
2024/03/16 01:46:41;;;;;;;9.50;2.83;;;;;;;-146.27;89.75;44205.22;5081164;28;20060;-73
2024/03/16 01:49:08;;;;;;;10.40;2.63;;;;;;;-146.27;89.13;44137.56;5070989;28;20496;-73
2024/03/16 01:51:36;;;;;;;11.40;2.58;;;;;;;-146.27;89.88;44157.47;5072550;28;20046;-72
2024/03/16 01:54:01;;;;;;;8.73;2.70;;;;;;;-146.27;89.42;44075.91;5083667;28;20024;-72
2024/03/16 01:56:26;;;;;;;13.23;2.85;;;;;;;-146.27;89.45;44048.03;5081086;28;20070;-73
2024/03/16 01:58:52;;;;;;;13.93;3.35;;;;;;;-146.27;89.42;44065.94;5075126;28;20542;-74
2024/03/16 02:01:17;;;;;;;10.77;2.08;;;;;;;-146.27;90.02;44127.63;5083063;28;20048;-73
2024/03/16 02:03:43;;;;;;;10.73;1.85;;;;;;;-146.27;90.17;44097.78;5070867;28;20474;-72
2024/03/16 02:06:08;;;;;;;16.42;2.13;;;;;;;-146.27;90.02;44056.00;5089597;28;20096;-73
2024/03/16 02:08:33;;;;;;;13.80;2.65;;;;;;;-146.27;90.34;44095.78;5073276;28;20032;-72
2024/03/16 02:10:59;;;;;;;12.75;1.80;;;;;;;-146.27;90.07;44028.16;5082394;28;20476;-72
2024/03/16 02:13:24;;;;;;;14.15;2.45;;;;;;;-146.27;90.06;44052.03;5083014;28;20059;-73
2024/03/16 02:15:49;;;;;;;10.73;2.00;;;;;;;-146.27;89.88;44083.84;5076410;28;20380;-73
2024/03/16 02:18:15;;;;;;;9.82;1.50;;;;;;;-146.27;90.00;44067.94;5084317;28;20395;-72
2024/03/16 02:20:41;;;;;;;8.73;1.83;;;;;;;-146.27;89.78;44111.72;5071333;28;20021;-73
2024/03/16 02:23:06;;;;;;;10.25;1.50;;;;;;;-146.27;89.71;44075.91;5070252;28;20032;-72
2024/03/16 02:25:32;;;;;;;7.20;1.20;;;;;;;-146.27;89.46;44077.88;5083747;28;20040;-73
2024/03/16 02:27:57;;;;;;;13.85;1.80;;;;;;;-146.27;89.81;44123.66;5074779;28;20391;-73
2024/03/16 02:30:22;;;;;;;8.95;1.85;;;;;;;-146.27;90.19;44095.78;5085744;28;20428;-72
2024/03/16 02:32:49;;;;;;;11.43;1.60;;;;;;;-146.27;90.30;44079.88;5075830;28;20028;-73
2024/03/16 02:35:15;;;;;;;7.55;1.13;;;;;;;-146.27;90.22;44067.94;5084649;28;20438;-72
2024/03/16 02:37:41;;;;;;;6.22;1.30;;;;;;;-146.27;89.89;44058.00;5082843;28;20016;-72
2024/03/16 02:40:11;;;;;;;6.25;1.58;;;;;;;-146.27;90.00;44067.94;5086277;28;20089;-72
2024/03/16 02:42:38;;;;;;;8.00;1.23;;;;;;;-146.27;89.77;44061.97;5072096;28;20033;-73
2024/03/16 02:45:05;;;;;;;8.75;1.52;;;;;;;-146.27;89.60;44056.00;5070572;28;20040;-72
2024/03/16 02:47:31;;;;;;;4.70;1.05;;;;;;;-146.27;89.16;44059.97;5081462;28;20546;-72
2024/03/16 02:49:56;;;;;;;7.15;1.17;;;;;;;-146.27;89.52;44065.94;5080285;28;20055;-73
2024/03/16 02:52:23;;;;;;;9.70;1.20;;;;;;;-146.27;89.24;44052.03;5073655;28;20032;-73
2024/03/16 02:54:48;;;;;;;3.85;0.95;;;;;;;-146.27;89.12;44083.84;5083277;28;20032;-73
2024/03/16 02:57:14;;;;;;;5.53;0.82;;;;;;;-146.27;89.02;44069.94;5088807;28;20020;-72
2024/03/16 02:59:40;;;;;;;4.45;0.70;;;;;;;-146.27;89.01;44058.00;5088813;28;20094;-72
2024/03/16 03:02:06;;;;;;;6.32;0.88;;;;;;;-146.27;89.03;44056.00;5076312;28;20443;-73
2024/03/16 03:04:31;;;;;;;10.82;1.08;;;;;;;-146.27;89.29;44036.09;5090339;28;20103;-73
2024/03/16 03:06:56;;;;;;;4.32;0.90;;;;;;;-146.27;89.02;44058.00;5089936;28;20016;-73
2024/03/16 03:09:23;;;;;;;7.93;2.05;;;;;;;-146.27;88.89;44073.91;5081627;28;20731;-72
2024/03/16 03:11:48;;;;;;;6.70;1.08;;;;;;;-146.27;88.97;44044.06;5077941;28;20510;-73
2024/03/16 03:14:15;;;;;;;3.30;0.70;;;;;;;-146.27;88.83;44054.00;5070334;28;20020;-73
2024/03/16 03:16:41;;;;;;;7.05;1.30;;;;;;;-146.27;88.83;44075.91;5085727;28;20063;-73
2024/03/16 03:19:06;;;;;;;8.23;1.05;;;;;;;-146.27;89.15;44052.03;5087368;28;20070;-75
2024/03/16 03:21:32;;;;;;;9.93;1.10;;;;;;;-146.27;88.95;44028.16;5069815;28;20464;-75
2024/03/16 03:23:59;;;;;;;6.13;0.77;;;;;;;-146.27;88.78;44044.06;5069779;28;20025;-75
2024/03/16 03:26:25;;;;;;;5.97;0.93;;;;;;;-146.27;88.77;44081.88;5076022;28;20027;-75
2024/03/16 03:28:50;;;;;;;8.68;1.08;;;;;;;-146.27;88.80;44093.81;5084101;28;20020;-75
2024/03/16 03:31:15;;;;;;;15.90;1.10;;;;;;;-146.27;88.57;44089.81;5069265;28;20024;-75
2024/03/16 03:33:41;;;;;;;8.27;1.00;;;;;;;-146.27;88.46;44089.81;5073226;28;20107;-75
2024/03/16 03:36:07;;;;;;;10.55;3.38;;;;;;;-146.27;88.26;44069.94;5082064;28;20438;-76
2024/03/16 03:38:32;;;;;;;9.40;1.10;;;;;;;-146.27;88.03;44111.72;5089653;28;20058;-75
2024/03/16 03:40:58;;;;;;;10.05;1.35;;;;;;;-146.27;87.97;44131.59;5087885;28;20028;-75
2024/03/16 03:43:24;;;;;;;3.67;0.90;;;;;;;-146.27;87.67;44063.97;5092922;28;20046;-75
2024/03/16 03:45:50;;;;;;;5.25;0.90;;;;;;;-146.27;87.38;44107.72;5093367;28;20507;-75
2024/03/16 03:48:25;;;;;;;10.40;1.42;;;;;;;-146.27;87.26;44127.63;5092294;28;20081;-75
2024/03/16 03:50:57;;;;;;;9.45;1.25;;;;;;;-146.27;87.32;44127.63;5071987;28;20043;-75
2024/03/16 03:53:27;;;;;;;8.43;1.48;;;;;;;-146.27;87.44;44135.59;5085232;28;20043;-75
2024/03/16 03:55:53;;;;;;;7.78;1.38;;;;;;;-146.27;87.83;44101.75;5084499;28;20043;-75
2024/03/16 03:58:19;;;;;;;15.75;2.13;;;;;;;-146.27;87.92;44105.75;5082847;28;20481;-75
2024/03/16 04:00:48;;;;;;;7.88;0.93;;;;;;;-146.27;87.35;44083.84;5079178;28;20029;-75
2024/03/16 04:03:15;;;;;;;15.73;1.38;;;;;;;-146.27;87.17;44123.66;5075172;28;20047;-75
2024/03/16 04:05:41;;;;;;;8.50;0.98;;;;;;;-146.27;87.11;44131.59;5087521;28;20099;-75
2024/03/16 04:08:07;;;;;;;11.18;1.10;;;;;;;-146.27;87.04;44127.63;5083043;28;20035;-75
2024/03/16 04:10:34;;;;;;;14.90;2.22;;;;;;;-146.27;87.21;44143.53;5083425;28;20024;-75
2024/03/16 04:12:59;;;;;;;8.25;1.35;;;;;;;-146.27;87.11;44135.59;5073553;28;20097;-75
2024/03/16 04:15:25;;;;;;;12.60;1.40;;;;;;;-146.27;87.20;44151.50;5084047;28;20479;-75
2024/03/16 04:17:50;;;;;;;8.45;1.25;;;;;;;-146.27;87.09;44227.09;5082774;28;20122;-75
2024/03/16 04:20:20;;;;;;;11.10;1.58;;;;;;;-146.27;86.81;44207.22;5076405;28;20523;-75
2024/03/16 04:22:46;;;;;;;9.55;1.67;;;;;;;-146.27;85.93;44260.94;5072219;28;20511;-75
2024/03/16 04:25:12;;;;;;;5.57;1.10;;;;;;;-146.27;85.32;44324.59;5089809;28;20222;-75
2024/03/16 04:27:43;;;;;;;11.32;1.77;;;;;;;-146.27;85.04;44282.81;5079802;28;20119;-75
2024/03/16 04:30:10;;;;;;;16.80;1.73;;;;;;;-146.27;84.62;44286.78;5072471;28;20121;-75
2024/03/16 04:32:36;;;;;;;10.65;1.58;;;;;;;-146.27;84.75;44264.91;5074985;28;20055;-75
2024/03/16 04:35:02;;;;;;;13.50;1.60;;;;;;;-146.27;84.92;44280.81;5092199;28;20090;-75
2024/03/16 04:37:28;;;;;;;8.35;1.13;;;;;;;-146.27;85.17;44266.91;5082595;28;20038;-75
2024/03/16 04:39:55;;;;;;;5.40;1.25;;;;;;;-146.27;84.97;44276.84;5072197;28;20036;-76
2024/03/16 04:42:21;;;;;;;9.48;1.20;;;;;;;-146.27;85.16;44264.91;5071934;28;20491;-75
2024/03/16 04:44:46;;;;;;;6.22;0.70;;;;;;;-146.27;85.19;44298.75;5077014;28;20019;-75
2024/03/16 04:47:12;;;;;;;4.43;0.60;;;;;;;-146.27;85.60;44310.69;5074650;28;20028;-75
2024/03/16 04:49:37;;;;;;;4.35;0.65;;;;;;;-146.27;85.67;44346.50;5083242;28;21183;-76
2024/03/16 04:52:02;;;;;;;3.53;0.30;;;;;;;-146.27;85.47;44322.63;5085232;28;20055;-74
2024/03/16 04:54:28;;;;;;;11.50;0.88;;;;;;;-146.27;86.02;44316.66;5091698;28;20078;-74
2024/03/16 04:56:53;;;;;;;1.60;0.57;;;;;;;-146.27;86.21;44284.81;5085286;28;20536;-75
2024/03/16 04:59:19;;;;;;;1.30;0.40;;;;;;;-146.27;86.37;44334.56;5088157;28;20031;-75
2024/03/16 05:01:44;;;;;;;4.38;1.00;;;;;;;-146.27;86.53;44326.59;5075743;28;20131;-75
2024/03/16 05:04:09;;;;;;;2.75;0.65;;;;;;;-146.27;86.35;44322.63;5077880;28;20048;-74
2024/03/16 05:06:35;;;;;;;4.57;0.68;;;;;;;-146.27;86.65;44332.56;5080066;28;20052;-75
2024/03/16 05:09:05;;;;;;;3.75;0.88;;;;;;;-146.27;86.69;44332.56;5076201;28;20119;-75
2024/03/16 05:11:31;;;;;;;6.20;0.77;;;;;;;-146.27;86.35;44314.66;5074862;28;20040;-75
2024/03/16 05:13:59;;;;;;;4.13;0.65;;;;;;;-146.27;86.50;44314.66;5071179;28;20028;-75
2024/03/16 05:16:24;;;;;;;7.05;1.10;;;;;;;-146.27;86.29;44314.66;5085459;28;20444;-75
2024/03/16 05:18:50;;;;;;;1.95;0.63;;;;;;;-146.27;86.50;44346.50;5088123;28;20066;-75
2024/03/16 05:21:15;;;;;;;10.32;1.08;;;;;;;-146.27;86.91;44326.59;5075730;28;20111;-75
2024/03/16 05:23:45;;;;;;;2.15;0.55;;;;;;;-146.27;87.00;44296.75;5084628;28;20036;-74
2024/03/16 05:26:10;;;;;;;5.05;0.98;;;;;;;-146.27;86.90;44286.78;5090288;28;20455;-75
2024/03/16 05:28:36;;;;;;;7.63;1.10;;;;;;;-146.27;87.11;44270.88;5091296;28;20072;-75
2024/03/16 05:31:01;;;;;;;6.68;0.85;;;;;;;-146.27;86.43;44278.84;5087212;28;20028;-75
2024/03/16 05:33:26;;;;;;;12.00;1.45;;;;;;;-146.27;86.10;44316.66;5071354;28;20029;-74
2024/03/16 05:35:52;;;;;;;9.05;1.17;;;;;;;-146.27;86.06;44316.66;5073526;28;20032;-75
2024/03/16 05:38:17;;;;;;;10.70;1.30;;;;;;;-146.27;85.91;44290.78;5080918;28;20480;-75
2024/03/16 05:40:45;;;;;;;10.23;1.35;;;;;;;-146.27;85.48;44314.66;5073508;28;20409;-75
2024/03/16 05:43:11;;;;;;;8.95;1.73;;;;;;;-146.27;85.63;44298.75;5070791;28;20028;-74
2024/03/16 05:45:36;;;;;;;8.32;1.48;;;;;;;-146.27;85.36;44334.56;5084170;28;20036;-75
2024/03/16 05:48:02;;;;;;;12.68;1.20;;;;;;;-146.27;85.21;44302.72;5089266;28;20039;-76
2024/03/16 05:50:28;;;;;;;11.02;1.30;;;;;;;-146.27;85.20;44342.50;5084381;28;20035;-75
2024/03/16 05:52:54;;;;;;;8.13;0.98;;;;;;;-146.27;84.91;44352.47;5080925;28;20082;-74
2024/03/16 05:55:20;;;;;;;9.95;1.73;;;;;;;-146.27;84.80;44366.38;5086621;28;20023;-75
2024/03/16 05:57:45;;;;;;;9.65;0.85;;;;;;;-146.27;84.26;44370.38;5073042;28;20042;-75
2024/03/16 06:00:14;;;;;;;9.45;1.00;;;;;;;-146.27;84.02;44362.41;5090802;28;20110;-75
2024/03/16 06:02:40;;;;;;;13.48;1.65;;;;;;;-146.27;83.96;44388.28;5076851;28;20028;-75
2024/03/16 06:05:06;;;;;;;9.07;1.45;;;;;;;-146.27;83.42;44457.91;5073083;28;20404;-75
2024/03/16 06:07:32;;;;;;;7.18;1.38;;;;;;;-146.27;83.26;44481.78;5075460;28;20051;-74
2024/03/16 06:09:57;;;;;;;6.18;1.20;;;;;;;-146.27;83.05;44485.78;5071361;28;20119;-75
2024/03/16 06:12:23;;;;;;;14.70;1.45;;;;;;;-146.27;82.86;44547.44;5079434;28;20017;-75
2024/03/16 06:14:49;;;;;;;9.77;1.60;;;;;;;-146.27;82.11;44507.66;5087104;28;20032;-74
2024/03/16 06:17:15;;;;;;;6.80;1.15;;;;;;;-146.27;81.48;44523.56;5080809;28;20098;-75
2024/03/16 06:19:40;;;;;;;6.97;0.90;;;;;;;-146.27;81.13;44551.44;5080838;28;20035;-75
2024/03/16 06:22:07;;;;;;;4.95;1.52;;;;;;;-146.27;81.51;44567.34;5081932;28;20021;-75
2024/03/16 06:24:32;;;;;;;18.73;1.20;;;;;;;-146.27;81.05;44571.34;5076660;28;20461;-75
2024/03/16 06:27:05;;;;;;;5.70;0.90;;;;;;;-146.27;80.68;44633.00;5079454;28;20051;-75
2024/03/16 06:29:31;;;;;;;3.88;0.77;;;;;;;-146.27;81.35;44650.94;5071834;28;20503;-74
2024/03/16 06:32:05;;;;;;;6.93;1.08;;;;;;;-146.27;82.90;44637.00;5070130;28;20028;-75
2024/03/16 06:34:32;;;;;;;3.50;0.80;;;;;;;-146.27;83.47;44627.03;5089433;28;20904;-76
2024/03/16 06:36:57;;;;;;;5.18;1.35;;;;;;;-146.27;83.88;44638.97;5070917;28;20494;-76
2024/03/16 06:39:23;;;;;;;7.03;0.98;;;;;;;-146.27;84.59;44664.84;5070260;28;20107;-74
2024/03/16 06:41:49;;;;;;;3.38;1.10;;;;;;;-146.27;84.92;44652.91;5075008;28;20020;-76
2024/03/16 06:44:15;;;;;;;7.05;1.00;;;;;;;-146.27;85.83;44682.75;5082045;28;20440;-75
2024/03/16 06:46:41;;;;;;;9.85;1.15;;;;;;;-146.27;85.75;44716.59;5085219;28;20035;-75
2024/03/16 06:49:06;;;;;;;7.40;1.08;;;;;;;-146.27;85.40;44772.31;5085780;28;20027;-76
2024/03/16 06:51:32;;;;;;;9.07;1.48;;;;;;;-146.27;85.84;44790.22;5080199;28;20021;-70
2024/03/16 06:53:57;;;;;;;5.32;0.77;;;;;;;-146.27;85.68;44824.03;5086436;28;20032;-71
2024/03/16 06:56:23;;;;;;;11.85;1.20;;;;;;;-146.27;85.64;44843.94;5081482;28;20055;-70
2024/03/16 06:58:49;;;;;;;10.73;1.42;;;;;;;-146.27;85.57;44839.97;5069894;28;20032;-72
2024/03/16 07:01:14;;;;;;;8.43;1.50;;;;;;;-146.27;85.42;44847.91;5078212;28;20032;-71
2024/03/16 07:03:40;;;;;;;3.78;1.75;;;;;;;-146.27;85.21;44901.66;5074458;28;20020;-72
2024/03/16 07:06:08;;;;;;;6.18;1.13;;;;;;;-146.27;85.18;44879.75;5069968;28;20059;-72
2024/03/16 07:08:34;;;;;;;9.95;1.05;;;;;;;-146.27;85.04;44905.63;5074580;28;20036;-71
2024/03/16 07:11:00;;;;;;;6.95;0.90;;;;;;;-146.27;84.69;44905.63;5080891;28;20557;-71
2024/03/16 07:13:25;;;;;;;5.25;1.00;;;;;;;-146.27;84.30;44939.47;5082126;28;20507;-71
2024/03/16 07:15:51;;;;;;;5.57;1.08;;;;;;;-146.27;83.71;44947.41;5091827;28;20511;-72
2024/03/16 07:18:17;;;;;;;7.78;0.95;;;;;;;-146.27;83.12;45058.88;5092722;28;20099;-72
2024/03/16 07:20:46;;;;;;;13.60;1.17;;;;;;;-146.27;82.59;44993.19;5075829;28;20045;-71
2024/03/16 07:23:13;;;;;;;11.60;0.90;;;;;;;-146.27;81.89;45066.81;5092420;28;20073;-71
2024/03/16 07:25:41;;;;;;;7.18;1.15;;;;;;;-146.27;82.00;45094.69;5094049;28;20040;-71
2024/03/16 07:28:07;;;;;;;8.82;1.02;;;;;;;-146.27;81.45;45064.84;5093891;28;20028;-71
2024/03/16 07:30:35;;;;;;;9.43;1.45;;;;;;;-146.27;80.75;45062.84;5093395;28;20035;-70
2024/03/16 07:33:00;;;;;;;18.23;1.75;;;;;;;-146.27;80.24;45082.75;5092110;28;20016;-71
2024/03/16 07:35:27;;;;;;;7.40;0.90;;;;;;;-146.27;80.18;45092.69;5092755;28;20051;-71
2024/03/16 07:37:53;;;;;;;9.77;1.50;;;;;;;-146.27;80.17;45054.88;5084103;28;20051;-71
2024/03/16 07:40:21;;;;;;;6.00;0.90;;;;;;;-146.27;79.24;45086.72;5094953;28;20071;-73
2024/03/16 07:42:47;;;;;;;15.85;1.20;;;;;;;-146.27;78.88;45084.72;5090211;28;20093;-73
2024/03/16 07:45:14;;;;;;;7.93;1.33;;;;;;;-146.27;78.66;45090.72;5093618;28;20472;-72
2024/03/16 07:47:39;;;;;;;5.25;1.00;;;;;;;-146.27;78.21;45080.75;5093273;28;20427;-72
2024/03/16 07:50:05;;;;;;;4.85;0.88;;;;;;;-146.27;77.35;45130.50;5090958;28;20032;-72
2024/03/16 07:52:31;;;;;;;6.60;1.52;;;;;;;-146.27;76.45;45196.19;5091072;28;20029;-73
2024/03/16 07:54:57;;;;;;;7.53;1.38;;;;;;;-146.27;76.14;45204.13;5091955;28;20142;-74
2024/03/16 07:57:22;;;;;;;8.82;1.48;;;;;;;-146.27;76.00;45192.19;5092276;28;20396;-74
2024/03/16 07:59:47;;;;;;;7.88;1.00;;;;;;;-146.27;75.83;45174.28;5085079;28;20103;-73
2024/03/16 08:02:13;;;;;;;3.20;0.60;;;;;;;-146.27;73.36;45281.75;5092233;28;20097;-73
2024/03/16 08:04:38;;;;;;;3.80;0.88;;;;;;;-146.27;70.99;45333.50;5091992;28;20478;-74
2024/03/16 08:07:04;;;;;;;6.45;1.20;;;;;;;-146.27;70.14;45373.31;5091754;28;20751;-74
2024/03/16 08:09:29;;;;;;;4.80;0.85;;;;;;;-146.27;70.10;45369.31;5091896;28;20032;-73
2024/03/16 08:11:57;;;;;;;4.82;0.90;;;;;;;-146.27;69.17;45446.94;5092255;28;20354;-74
2024/03/16 08:14:22;;;;;;;4.72;0.65;;;;;;;-146.27;69.51;45423.06;5072363;28;20036;-73
2024/03/16 08:16:48;;;;;;;6.05;0.82;;;;;;;-146.27;70.00;45371.31;5072686;28;20403;-73
2024/03/16 08:19:15;;;;;;;10.25;1.00;;;;;;;-146.27;70.51;45369.31;5079698;28;20488;-73
2024/03/16 08:21:40;;;;;;;3.55;0.90;;;;;;;-146.27;68.29;45484.75;5092657;28;20031;-74
2024/03/16 08:24:06;;;;;;;5.43;1.20;;;;;;;-146.27;68.85;45397.19;5088920;28;20024;-72
2024/03/16 08:26:31;;;;;;;4.00;0.75;;;;;;;-146.27;69.35;45405.16;5091351;28;20052;-73
2024/03/16 08:28:57;;;;;;;6.80;1.00;;;;;;;-146.27;68.63;45377.28;5090521;28;20054;-73
2024/03/16 08:31:23;;;;;;;12.05;1.20;;;;;;;-146.27;68.80;45417.09;5092898;28;20554;-73
2024/03/16 08:33:50;;;;;;;4.40;0.65;;;;;;;-146.27;69.12;45401.16;5079229;28;20116;-72
2024/03/16 08:36:15;;;;;;;5.45;1.15;;;;;;;-146.27;70.12;45369.31;5099191;28;20020;-73
2024/03/16 08:38:42;;;;;;;7.65;1.02;;;;;;;-146.27;69.33;45401.16;5096043;28;20497;-73
2024/03/16 08:41:07;;;;;;;3.53;0.80;;;;;;;-146.27;69.08;45377.28;5095217;28;20427;-73
2024/03/16 08:43:32;;;;;;;4.70;0.93;;;;;;;-146.27;67.67;45401.16;5094641;28;20024;-72
2024/03/16 08:46:05;;;;;;;5.10;0.82;;;;;;;-146.27;67.61;45375.28;5097205;28;20055;-74
2024/03/16 08:48:32;;;;;;;3.60;1.08;;;;;;;-146.27;67.04;45413.09;5097238;28;20020;-74
2024/03/16 08:50:59;;;;;;;2.78;0.93;;;;;;;-146.27;66.23;45448.94;5100704;28;20085;-74
2024/03/16 08:53:24;;;;;;;7.78;3.83;;;;;;;-146.27;64.96;45466.84;5089327;28;20089;-73
2024/03/16 08:55:50;;;;;;;2.83;0.57;;;;;;;-146.27;65.20;45476.78;5103874;28;20020;-73
2024/03/16 08:58:16;;;;;;;2.63;0.80;;;;;;;-146.27;64.42;45472.81;5102162;28;20344;-73
2024/03/16 09:00:41;;;;;;;2.92;0.63;;;;;;;-146.27;63.34;45508.63;5099985;28;20027;-73
2024/03/16 09:03:17;;;;;;;3.25;0.68;;;;;;;-146.27;62.29;45592.22;5101200;28;20633;-73
2024/03/16 09:05:42;;;;;;;3.30;0.70;;;;;;;-146.27;61.63;45568.34;5098427;28;20055;-74
2024/03/16 09:08:08;;;;;;;3.35;0.50;;;;;;;-146.27;60.14;45600.19;5088958;28;20056;-73
2024/03/16 09:10:33;;;;;;;3.08;0.60;;;;;;;-146.27;58.25;45647.97;5094354;28;20028;-73
2024/03/16 09:12:58;;;;;;;2.25;0.50;;;;;;;-146.27;58.53;45687.78;5093245;28;20388;-70
2024/03/16 09:15:24;;;;;;;4.78;0.50;;;;;;;-146.27;58.72;45647.97;5089686;28;20039;-73
2024/03/16 09:17:51;;;;;;;5.90;0.82;;;;;;;-146.27;59.64;45602.19;5092903;28;20464;-70
2024/03/16 09:20:17;;;;;;;4.65;0.70;;;;;;;-146.27;59.59;45592.22;5094378;28;20046;-71
2024/03/16 09:22:43;;;;;;;4.95;0.70;;;;;;;-146.27;57.90;45679.81;5095157;28;20111;-71
2024/03/16 09:25:08;;;;;;;3.10;0.93;;;;;;;-146.27;57.69;45659.91;5091163;28;20049;-70
2024/03/16 09:27:37;;;;;;;5.75;0.70;;;;;;;-146.27;58.39;45638.00;5089524;28;20509;-71
2024/03/16 09:30:08;;;;;;;3.67;0.82;;;;;;;-146.27;57.16;45707.69;5084393;28;20027;-71
2024/03/16 09:32:34;;;;;;;5.18;0.93;;;;;;;-146.27;56.93;45725.59;5088440;28;20510;-71
2024/03/16 09:35:00;;;;;;;2.45;0.55;;;;;;;-146.27;57.43;45691.75;5093251;28;20100;-73
2024/03/16 09:37:25;;;;;;;6.75;0.85;;;;;;;-146.27;57.20;45679.81;5109969;28;20439;-70
2024/03/16 09:39:51;;;;;;;5.47;0.60;;;;;;;-146.27;57.65;45683.78;5094473;28;20133;-71
2024/03/16 09:42:17;;;;;;;13.07;1.20;;;;;;;-146.27;59.21;45655.94;5094844;28;20028;-71
2024/03/16 09:44:44;;;;;;;11.32;1.10;;;;;;;-146.27;60.06;45630.06;5097895;28;20030;-71
2024/03/16 09:47:14;;;;;;;6.07;0.93;;;;;;;-146.27;61.26;45596.22;5091557;28;20123;-71
2024/03/16 09:49:41;;;;;;;10.80;1.58;;;;;;;-146.27;61.46;45590.25;5090758;28;20025;-71
2024/03/16 09:52:10;;;;;;;6.63;0.75;;;;;;;-146.27;61.24;45584.28;5087538;28;20466;-72
2024/03/16 09:54:39;;;;;;;6.53;1.20;;;;;;;-146.27;60.43;45634.03;5093482;28;20360;-71
2024/03/16 09:57:15;;;;;;;3.22;0.75;;;;;;;-146.27;60.67;45659.91;5085892;28;20032;-72
2024/03/16 09:59:47;;;;;;;6.50;0.93;;;;;;;-146.27;62.42;45640.00;5081981;28;20016;-72
2024/03/16 10:02:19;;;;;;;4.32;0.90;;;;;;;-146.27;60.44;45655.94;5088779;28;20554;-71
2024/03/16 10:04:46;;;;;;;5.55;1.00;;;;;;;-146.27;60.85;45606.16;5085164;28;20026;-71
2024/03/16 10:07:11;;;;;;;5.38;0.80;;;;;;;-146.27;56.68;45711.66;5090507;28;20036;-71
2024/03/16 10:09:50;;;;;;;2.78;0.88;;;;;;;-146.27;56.20;45731.56;5094648;28;20032;-69
2024/03/16 10:12:16;;;;;;;7.15;0.93;;;;;;;-146.27;54.77;45717.63;5089557;28;20036;-74
2024/03/16 10:14:41;;;;;;;5.03;0.80;;;;;;;-146.27;54.97;45679.81;5082549;28;20031;-73
2024/03/16 10:17:07;;;;;;;7.43;0.88;;;;;;;-146.27;53.29;45685.78;5076554;28;20054;-73
2024/03/16 10:19:35;;;;;;;3.63;0.50;;;;;;;-146.27;53.36;45713.66;5077456;28;20039;-73
2024/03/16 10:22:02;;;;;;;2.58;0.47;;;;;;;-146.27;53.19;45707.69;5086374;28;20383;-73
2024/03/16 10:24:31;;;;;;;5.15;0.70;;;;;;;-146.27;50.28;45841.03;5108823;28;20464;-73
2024/03/16 10:26:58;;;;;;;2.75;0.70;;;;;;;-146.27;49.53;45882.84;5094761;28;20076;-76
2024/03/16 10:29:24;;;;;;;7.30;0.77;;;;;;;-146.27;51.09;45775.34;5090637;28;20476;-75
2024/03/16 10:31:50;;;;;;;3.20;0.70;;;;;;;-146.27;48.96;45888.81;5094880;28;20020;-74
2024/03/16 10:34:16;;;;;;;10.95;2.15;;;;;;;-146.27;49.26;45902.75;5093504;28;20393;-74
2024/03/16 10:36:41;;;;;;;6.10;0.90;;;;;;;-146.27;49.92;45888.81;5080826;28;20128;-72
2024/03/16 10:39:08;;;;;;;6.28;0.70;;;;;;;-146.27;51.04;45904.72;5080494;28;20497;-72
2024/03/16 10:41:34;;;;;;;4.40;0.90;;;;;;;-146.27;52.19;45922.63;5091049;28;20130;-70
2024/03/16 10:44:02;;;;;;;7.80;1.13;;;;;;;-146.27;56.93;45874.88;5084281;28;20069;-72
2024/03/16 10:46:28;;;;;;;8.27;0.82;;;;;;;-146.27;59.78;45831.09;5088769;28;20038;-71
2024/03/16 10:48:53;;;;;;;9.45;1.50;;;;;;;-146.27;62.26;45747.47;5091686;28;20024;-72
2024/03/16 10:51:18;;;;;;;15.25;1.85;;;;;;;-146.27;64.51;45667.88;5093193;28;20028;-72
2024/03/16 10:53:48;;;;;;;6.20;1.30;;;;;;;-146.27;63.15;45661.91;5098555;28;20335;-71
2024/03/16 10:56:14;;;;;;;6.47;1.23;;;;;;;-146.27;62.42;45699.72;5085960;28;20020;-71
2024/03/16 10:58:40;;;;;;;12.27;1.35;;;;;;;-146.27;59.98;45737.53;5087501;28;20051;-71
2024/03/16 11:01:08;;;;;;;6.13;0.98;;;;;;;-146.27;59.73;45701.69;5078388;28;20467;-71
2024/03/16 11:03:36;;;;;;;6.40;1.23;;;;;;;-146.27;58.43;45767.38;5093948;28;20099;-71
2024/03/16 11:06:10;;;;;;;8.65;1.55;;;;;;;-146.27;58.02;45703.69;5091764;28;20039;-71
2024/03/16 11:08:46;;;;;;;8.38;1.20;;;;;;;-146.27;58.25;45725.59;5093543;28;20102;-72
2024/03/16 11:11:18;;;;;;;8.38;1.17;;;;;;;-146.27;57.64;45703.69;5089982;28;20035;-71